createdAt,value
2022-08-19T00:00:28.955Z,81.98
2022-08-19T00:03:10.548Z,82.13
2022-08-19T00:05:44.330Z,82.41
2022-08-19T00:08:18.235Z,82.31
2022-08-19T00:10:52.136Z,82.26
2022-08-19T00:13:26.016Z,82.04
2022-08-19T00:16:02.619Z,82.25
2022-08-19T00:18:37.349Z,82.43
2022-08-19T00:21:11.594Z,82.53
2022-08-19T00:23:45.893Z,82.42
2022-08-19T00:26:19.902Z,82.50
2022-08-19T00:28:53.502Z,82.54
2022-08-19T00:31:29.238Z,82.73
2022-08-19T00:34:04.876Z,82.75
2022-08-19T00:36:39.192Z,82.63
2022-08-19T00:39:13.424Z,82.84
2022-08-19T00:41:51.005Z,82.93
2022-08-19T00:44:32.032Z,82.99
2022-08-19T00:47:07.256Z,82.93
2022-08-19T00:49:55.607Z,83.16
2022-08-19T00:52:36.899Z,83.26
2022-08-19T00:55:13.302Z,83.25
2022-08-19T00:57:55.939Z,83.38
2022-08-19T01:00:31.112Z,83.40
2022-08-19T01:03:04.564Z,83.86
2022-08-19T01:05:40.008Z,83.59
2022-08-19T01:08:13.641Z,83.46
2022-08-19T01:11:00.210Z,83.52
2022-08-19T01:13:44.564Z,83.62
2022-08-19T01:16:30.408Z,83.57
2022-08-19T01:19:04.444Z,83.61
2022-08-19T01:21:51.165Z,83.64
2022-08-19T01:24:24.585Z,83.92
2022-08-19T01:26:58.332Z,84.01
2022-08-19T01:29:32.351Z,84.01
2022-08-19T01:32:06.551Z,84.00
2022-08-19T01:34:40.298Z,84.19
2022-08-19T01:37:14.863Z,84.17
2022-08-19T01:40:00.159Z,84.21
2022-08-19T01:42:34.215Z,84.48
2022-08-19T01:45:08.857Z,84.57
2022-08-19T01:47:43.376Z,84.51
2022-08-19T01:50:38.683Z,84.35
2022-08-19T01:53:15.025Z,84.47
2022-08-19T01:55:50.175Z,84.71
2022-08-19T01:58:27.546Z,84.55
2022-08-19T02:01:05.014Z,84.48
2022-08-19T02:03:38.702Z,84.59
2022-08-19T02:06:12.597Z,84.47
2022-08-19T02:08:50.772Z,84.51
2022-08-19T02:11:33.226Z,84.32
2022-08-19T02:14:09.581Z,84.43
2022-08-19T02:16:43.398Z,84.58
2022-08-19T02:19:17.245Z,84.67
2022-08-19T02:21:51.677Z,84.68
2022-08-19T02:24:26.706Z,84.72
2022-08-19T02:27:00.176Z,84.79
2022-08-19T02:29:33.592Z,84.88
2022-08-19T02:32:07.316Z,84.67
2022-08-19T02:34:42.130Z,84.84
2022-08-19T02:37:35.019Z,84.92
2022-08-19T02:40:12.693Z,85.03
2022-08-19T02:42:47.260Z,85.19
2022-08-19T02:45:21.724Z,85.19
2022-08-19T02:47:55.504Z,85.22
2022-08-19T02:50:29.738Z,85.27
2022-08-19T02:53:03.386Z,85.47
2022-08-19T02:55:45.967Z,85.46
2022-08-19T02:58:23.326Z,85.26
2022-08-19T03:01:00.501Z,85.52
2022-08-19T03:03:34.723Z,85.64
2022-08-19T03:06:16.575Z,85.70
2022-08-19T03:08:54.924Z,85.62
2022-08-19T03:11:34.492Z,85.71
2022-08-19T03:14:11.099Z,85.78
2022-08-19T03:16:55.311Z,85.75
2022-08-19T03:19:30.037Z,85.79
2022-08-19T03:22:05.895Z,85.89
2022-08-19T03:24:39.692Z,85.87
2022-08-19T03:27:13.665Z,85.86
2022-08-19T03:29:47.722Z,85.73
2022-08-19T03:32:32.947Z,85.80
2022-08-19T03:35:09.589Z,85.88
2022-08-19T03:37:43.142Z,85.82
2022-08-19T03:40:16.796Z,85.87
2022-08-19T03:42:51.397Z,85.99
2022-08-19T03:45:25.534Z,86.43
2022-08-19T03:48:01.339Z,86.30
2022-08-19T03:50:36.673Z,85.95
2022-08-19T03:53:10.815Z,85.68
2022-08-19T03:55:45.936Z,85.59
2022-08-19T03:58:19.553Z,85.57
2022-08-19T04:00:54.116Z,85.43
2022-08-19T04:03:30.485Z,85.35
2022-08-19T04:06:12.685Z,85.29
2022-08-19T04:08:45.422Z,85.31
2022-08-19T04:11:24.206Z,85.23
2022-08-19T04:14:22.322Z,85.17
2022-08-19T04:16:55.670Z,85.13
2022-08-19T04:19:30.030Z,85.06
2022-08-19T04:22:03.083Z,84.98
2022-08-19T04:24:36.637Z,84.89
2022-08-19T04:27:09.805Z,84.84
2022-08-19T04:29:42.721Z,84.84
2022-08-19T04:32:18.359Z,84.78
2022-08-19T04:35:02.391Z,84.86
2022-08-19T04:37:46.712Z,84.84
2022-08-19T04:40:38.769Z,84.66
2022-08-19T04:43:14.041Z,84.41
2022-08-19T04:45:48.878Z,84.64
2022-08-19T04:48:29.650Z,84.77
2022-08-19T04:51:04.315Z,84.60
2022-08-19T04:53:39.611Z,84.48
2022-08-19T04:56:15.367Z,84.49
2022-08-19T04:58:49.473Z,84.51
2022-08-19T05:01:26.248Z,84.27
2022-08-19T05:04:02.895Z,84.61
2022-08-19T05:06:38.645Z,84.63
2022-08-19T05:09:12.484Z,85.02
2022-08-19T05:11:46.089Z,84.69
2022-08-19T05:14:19.347Z,84.35
2022-08-19T05:17:06.416Z,84.22
2022-08-19T05:20:07.208Z,84.21
2022-08-19T05:22:42.688Z,83.97
2022-08-19T05:25:20.911Z,83.72
2022-08-19T05:27:55.145Z,83.89
2022-08-19T05:30:42.336Z,83.77
2022-08-19T05:33:23.580Z,83.40
2022-08-19T05:35:58.783Z,83.33
2022-08-19T05:38:32.391Z,83.17
2022-08-19T05:41:11.685Z,83.11
2022-08-19T05:43:45.514Z,82.78
2022-08-19T05:46:27.897Z,82.88
2022-08-19T05:49:05.685Z,82.56
2022-08-19T05:51:40.488Z,82.26
2022-08-19T05:54:15.172Z,82.07
2022-08-19T05:56:48.893Z,82.09
2022-08-19T05:59:24.923Z,81.91
2022-08-19T06:01:59.039Z,81.61
2022-08-19T06:04:32.316Z,81.39
2022-08-19T06:07:12.592Z,81.48
2022-08-19T06:10:00.501Z,81.29
2022-08-19T06:12:37.030Z,80.95
2022-08-19T06:15:17.681Z,80.86
2022-08-19T06:17:51.305Z,80.44
2022-08-19T06:20:52.331Z,80.21
2022-08-19T06:23:21.584Z,79.96
2022-08-19T06:25:57.811Z,79.55
2022-08-19T06:28:31.700Z,79.42
2022-08-19T06:31:10.656Z,79.41
2022-08-19T06:33:43.982Z,79.18
2022-08-19T06:36:35.499Z,79.39
2022-08-19T06:39:15.048Z,78.96
2022-08-19T06:41:53.319Z,78.79
2022-08-19T06:44:30.471Z,78.50
2022-08-19T06:47:14.630Z,78.29
2022-08-19T06:50:05.723Z,78.09
2022-08-19T06:52:41.002Z,77.81
2022-08-19T06:55:14.829Z,77.29
2022-08-19T06:57:49.706Z,76.72
2022-08-19T07:00:23.498Z,76.25
2022-08-19T07:03:00.903Z,76.32
2022-08-19T07:05:45.526Z,76.38
2022-08-19T07:08:19.751Z,76.29
2022-08-19T07:10:53.412Z,76.00
2022-08-19T07:13:28.101Z,75.16
2022-08-19T07:16:01.918Z,73.51
2022-08-19T07:18:41.361Z,73.09
2022-08-19T07:21:29.673Z,73.04
2022-08-19T07:24:07.135Z,72.66
2022-08-19T07:26:46.567Z,72.12
2022-08-19T07:29:28.582Z,70.96
2022-08-19T07:32:02.663Z,70.60
2022-08-19T07:34:38.865Z,70.83
2022-08-19T07:37:13.857Z,70.51
2022-08-19T07:39:47.516Z,70.06
2022-08-19T07:42:22.404Z,69.53
2022-08-19T07:44:56.174Z,69.30
2022-08-19T07:47:58.759Z,68.71
2022-08-19T07:50:25.935Z,68.14
2022-08-19T07:53:00.319Z,67.23
2022-08-19T07:55:41.793Z,65.43
2022-08-19T07:58:24.605Z,66.36
2022-08-19T08:00:58.310Z,64.63
2022-08-19T08:03:50.678Z,65.76
2022-08-19T08:06:41.903Z,65.53
2022-08-19T08:09:27.183Z,64.38
2022-08-19T08:12:33.087Z,62.90
2022-08-19T08:15:08.311Z,61.81
2022-08-19T08:17:49.169Z,61.61
2022-08-19T08:20:27.799Z,61.52
2022-08-19T08:23:20.733Z,60.44
2022-08-19T08:25:56.150Z,60.42
2022-08-19T08:28:30.661Z,59.49
2022-08-19T08:31:09.369Z,58.16
2022-08-19T08:33:45.222Z,58.11
2022-08-19T08:36:19.241Z,57.54
2022-08-19T08:42:10.019Z,57.99
2022-08-19T08:45:17.899Z,55.05
2022-08-19T08:47:56.130Z,53.43
2022-08-19T08:50:43.545Z,53.36
2022-08-19T08:53:29.243Z,53.79
2022-08-19T08:56:09.991Z,52.18
2022-08-19T08:59:20.111Z,51.10
2022-08-19T09:01:53.612Z,51.35
2022-08-19T09:04:27.110Z,50.44
2022-08-19T09:07:44.647Z,50.26
2022-08-19T09:10:47.250Z,48.89
2022-08-19T09:14:02.469Z,47.62
2022-08-19T09:16:35.727Z,47.54
2022-08-19T09:19:12.625Z,47.57
2022-08-19T09:21:46.926Z,47.66
2022-08-19T09:24:21.446Z,48.63
2022-08-19T09:26:54.763Z,48.08
2022-08-19T09:29:29.221Z,48.25
2022-08-19T09:32:02.526Z,48.23
2022-08-19T09:34:37.905Z,48.26
2022-08-19T09:37:12.490Z,46.79
2022-08-19T09:39:48.895Z,47.49
2022-08-19T09:42:29.973Z,46.10
2022-08-19T09:45:06.150Z,45.48
2022-08-19T09:47:45.113Z,45.99
2022-08-19T09:50:21.812Z,46.57
2022-08-19T09:52:57.577Z,47.09
2022-08-19T09:55:32.838Z,47.95
2022-08-19T09:58:06.818Z,48.57
2022-08-19T10:00:41.677Z,49.44
2022-08-19T10:03:15.334Z,49.88
2022-08-19T10:05:55.101Z,50.23
2022-08-19T10:08:37.884Z,49.85
2022-08-19T10:11:28.621Z,49.10
2022-08-19T10:14:10.048Z,48.46
2022-08-19T10:16:44.485Z,48.46
2022-08-19T10:19:25.488Z,48.82
2022-08-19T10:22:01.421Z,48.21
2022-08-19T10:24:35.214Z,48.01
2022-08-19T10:27:08.966Z,47.48
2022-08-19T10:29:46.393Z,46.07
2022-08-19T10:32:20.730Z,46.62
2022-08-19T10:35:10.674Z,47.61
2022-08-19T10:37:56.707Z,46.20
2022-08-19T10:40:38.445Z,46.38
2022-08-19T10:43:11.908Z,45.69
2022-08-19T10:45:52.202Z,45.38
2022-08-19T10:48:28.044Z,45.69
2022-08-19T10:51:23.002Z,45.57
2022-08-19T10:53:57.186Z,45.83
2022-08-19T10:56:50.203Z,44.90
2022-08-19T10:59:32.597Z,44.19
2022-08-19T11:02:14.837Z,44.52
2022-08-19T11:04:51.390Z,45.80
2022-08-19T11:07:27.872Z,45.62
2022-08-19T11:10:00.573Z,45.03
2022-08-19T11:12:35.196Z,44.49
2022-08-19T11:15:12.270Z,44.72
2022-08-19T11:17:46.317Z,44.85
2022-08-19T11:20:20.408Z,43.71
2022-08-19T11:22:55.941Z,44.14
2022-08-19T11:25:29.472Z,44.66
2022-08-19T11:28:02.885Z,43.65
2022-08-19T11:30:36.560Z,43.24
2022-08-19T11:33:12.863Z,43.56
2022-08-19T11:35:47.270Z,43.37
2022-08-19T11:38:21.178Z,43.29
2022-08-19T11:41:07.376Z,43.06
2022-08-19T11:43:41.178Z,42.73
2022-08-19T11:46:17.370Z,42.74
2022-08-19T11:48:52.117Z,43.13
2022-08-19T11:51:27.055Z,42.90
2022-08-19T11:54:01.124Z,42.14
2022-08-19T11:56:35.199Z,42.57
2022-08-19T11:59:14.056Z,42.98
2022-08-19T12:01:50.294Z,42.69
2022-08-19T12:04:23.990Z,42.70
2022-08-19T12:06:57.541Z,42.80
2022-08-19T12:09:30.963Z,43.00
2022-08-19T12:12:04.743Z,42.77
2022-08-19T12:14:38.716Z,42.68
2022-08-19T12:17:12.827Z,42.31
2022-08-19T12:19:47.068Z,42.31
2022-08-19T12:22:22.336Z,42.68
2022-08-19T12:24:56.417Z,42.46
2022-08-19T12:27:40.028Z,42.46
2022-08-19T12:30:16.566Z,42.13
2022-08-19T12:32:52.991Z,42.38
2022-08-19T12:35:27.128Z,41.93
2022-08-19T12:38:01.326Z,42.62
2022-08-19T12:40:34.534Z,42.76
2022-08-19T12:43:08.540Z,41.13
2022-08-19T12:45:42.728Z,41.66
2022-08-19T12:48:34.408Z,41.81
2022-08-19T12:51:21.349Z,42.38
2022-08-19T12:53:54.714Z,42.38
2022-08-19T12:56:28.859Z,42.56
2022-08-19T12:59:04.202Z,42.03
2022-08-19T13:01:37.561Z,41.93
2022-08-19T13:04:11.210Z,41.21
2022-08-19T13:06:44.393Z,41.97
2022-08-19T13:09:17.679Z,40.93
2022-08-19T13:11:50.794Z,40.60
2022-08-19T13:14:24.534Z,40.91
2022-08-19T13:17:01.254Z,40.85
2022-08-19T13:19:34.817Z,41.19
2022-08-19T13:22:13.328Z,40.50
2022-08-19T13:24:50.115Z,40.37
2022-08-19T13:27:23.719Z,40.71
2022-08-19T13:30:16.079Z,40.78
2022-08-19T13:33:07.322Z,40.21
2022-08-19T13:36:02.211Z,39.61
2022-08-19T13:38:35.423Z,39.61
2022-08-19T13:41:13.218Z,40.28
2022-08-19T13:43:50.646Z,40.00
2022-08-19T13:46:24.079Z,40.11
2022-08-19T13:48:57.662Z,40.67
2022-08-19T13:51:30.853Z,39.84
2022-08-19T13:54:03.925Z,40.01
2022-08-19T13:56:38.240Z,40.42
2022-08-19T13:59:14.837Z,41.12
2022-08-19T14:01:48.506Z,40.54
2022-08-19T14:04:22.165Z,39.85
2022-08-19T14:06:56.304Z,40.12
2022-08-19T14:09:30.026Z,40.12
2022-08-19T14:12:03.331Z,40.62
2022-08-19T14:14:39.760Z,40.20
2022-08-19T14:17:13.545Z,39.91
2022-08-19T14:19:48.217Z,39.81
2022-08-19T14:22:22.348Z,39.93
2022-08-19T14:24:56.058Z,38.96
2022-08-19T14:27:29.162Z,39.02
2022-08-19T14:30:04.180Z,39.17
2022-08-19T14:32:38.785Z,39.08
2022-08-19T14:35:13.913Z,38.40
2022-08-19T14:37:48.761Z,38.90
2022-08-19T14:40:24.519Z,38.76
2022-08-19T14:43:05.665Z,38.65
2022-08-19T14:45:42.315Z,38.63
2022-08-19T14:48:19.386Z,39.02
2022-08-19T14:50:53.944Z,38.04
2022-08-19T14:53:27.343Z,37.58
2022-08-19T14:56:01.919Z,38.13
2022-08-19T14:58:37.460Z,38.06
2022-08-19T15:01:13.614Z,38.69
2022-08-19T15:03:47.927Z,39.00
2022-08-19T15:06:20.975Z,38.67
2022-08-19T15:08:57.071Z,38.94
2022-08-19T15:11:34.186Z,38.79
2022-08-19T15:14:07.617Z,38.65
2022-08-19T15:16:43.547Z,38.28
2022-08-19T15:19:18.205Z,38.49
2022-08-19T15:21:51.755Z,37.96
2022-08-19T15:24:26.754Z,38.01
2022-08-19T15:27:00.419Z,38.88
2022-08-19T15:29:33.959Z,38.37
2022-08-19T15:32:08.261Z,38.16
2022-08-19T15:34:41.816Z,38.52
2022-08-19T15:37:14.902Z,39.43
2022-08-19T15:39:49.515Z,39.41
2022-08-19T15:42:29.985Z,38.76
2022-08-19T15:45:04.369Z,39.12
2022-08-19T15:47:37.826Z,39.36
2022-08-19T15:50:12.665Z,39.39
2022-08-19T15:53:01.209Z,39.01
2022-08-19T15:55:38.186Z,39.40
2022-08-19T15:58:32.320Z,39.37
2022-08-19T16:01:28.493Z,40.02
2022-08-19T16:04:21.439Z,40.19
2022-08-19T16:06:57.360Z,40.36
2022-08-19T16:09:35.230Z,39.94
2022-08-19T16:12:09.054Z,39.85
2022-08-19T16:14:42.085Z,40.41
2022-08-19T16:17:15.239Z,40.05
2022-08-19T16:19:52.172Z,40.38
2022-08-19T16:22:35.200Z,40.30
2022-08-19T16:25:10.859Z,40.30
2022-08-19T16:27:49.122Z,40.32
2022-08-19T16:30:48.776Z,40.64
2022-08-19T16:33:26.973Z,40.70
2022-08-19T16:36:07.643Z,40.77
2022-08-19T16:38:45.494Z,41.19
2022-08-19T16:41:18.995Z,41.46
2022-08-19T16:43:53.869Z,41.73
2022-08-19T16:46:28.016Z,42.02
2022-08-19T16:49:01.032Z,42.45
2022-08-19T16:51:34.323Z,42.88
2022-08-19T16:54:07.697Z,43.20
2022-08-19T16:56:40.837Z,43.69
2022-08-19T16:59:14.254Z,43.89
2022-08-19T17:01:46.993Z,44.64
2022-08-19T17:04:19.834Z,45.07
2022-08-19T17:06:53.179Z,45.38
2022-08-19T17:09:26.407Z,45.87
2022-08-19T17:11:59.202Z,46.32
2022-08-19T17:14:32.080Z,46.86
2022-08-19T17:17:05.340Z,47.39
2022-08-19T17:19:41.599Z,47.60
2022-08-19T17:22:15.484Z,48.21
2022-08-19T17:24:48.398Z,48.84
2022-08-19T17:27:21.252Z,49.51
2022-08-19T17:29:54.370Z,49.91
2022-08-19T17:32:27.753Z,50.16
2022-08-19T17:35:00.554Z,50.63
2022-08-19T17:37:34.594Z,50.98
2022-08-19T17:40:09.929Z,51.52
2022-08-19T17:42:43.050Z,52.04
2022-08-19T17:45:16.726Z,52.43
2022-08-19T17:47:49.524Z,53.10
2022-08-19T17:50:23.892Z,53.15
2022-08-19T17:52:57.557Z,53.47
2022-08-19T17:55:31.526Z,53.80
2022-08-19T17:58:05.878Z,54.18
2022-08-19T18:00:53.758Z,54.18
2022-08-19T18:03:30.666Z,54.59
2022-08-19T18:06:03.501Z,55.21
2022-08-19T18:08:47.344Z,55.37
2022-08-19T18:11:20.502Z,55.67
2022-08-19T18:13:54.099Z,56.02
2022-08-19T18:16:28.296Z,56.29
2022-08-19T18:19:01.567Z,56.68
2022-08-19T18:21:36.440Z,56.95
2022-08-19T18:24:09.230Z,56.99
2022-08-19T18:26:42.425Z,57.19
2022-08-19T18:29:16.318Z,57.59
2022-08-19T18:31:49.388Z,57.81
2022-08-19T18:34:22.357Z,58.03
2022-08-19T18:36:55.889Z,58.38
2022-08-19T18:39:47.079Z,58.30
2022-08-19T18:42:40.008Z,59.10
2022-08-19T18:45:31.825Z,59.10
2022-08-19T18:48:27.822Z,59.30
2022-08-19T18:51:03.091Z,59.57
2022-08-19T18:53:39.120Z,59.55
2022-08-19T18:56:14.596Z,59.82
2022-08-19T18:58:48.052Z,60.02
2022-08-19T19:01:23.867Z,60.27
2022-08-19T19:03:57.760Z,60.62
2022-08-19T19:06:38.512Z,61.37
2022-08-19T19:09:21.794Z,61.58
2022-08-19T19:12:00.736Z,61.31
2022-08-19T19:14:49.113Z,61.41
2022-08-19T19:17:27.939Z,61.66
2022-08-19T19:20:01.316Z,61.98
2022-08-19T19:22:33.992Z,62.19
2022-08-19T19:25:08.618Z,62.17
2022-08-19T19:27:41.234Z,62.26
2022-08-19T19:30:14.729Z,62.48
2022-08-19T19:32:47.579Z,62.55
2022-08-19T19:35:20.468Z,63.08
2022-08-19T19:37:53.322Z,63.22
2022-08-19T19:40:26.614Z,63.58
2022-08-19T19:43:00.429Z,63.59
2022-08-19T19:45:33.148Z,63.70
2022-08-19T19:48:06.723Z,63.86
2022-08-19T19:50:39.673Z,64.28
2022-08-19T19:53:15.691Z,64.51
2022-08-19T19:55:49.200Z,64.46
2022-08-19T19:58:28.708Z,64.56
2022-08-19T20:01:09.631Z,64.82
2022-08-19T20:03:45.175Z,64.91
2022-08-19T20:06:20.069Z,64.99
2022-08-19T20:09:12.215Z,65.29
2022-08-19T20:11:49.181Z,65.60
2022-08-19T20:14:29.474Z,65.48
2022-08-19T20:17:03.430Z,65.59
2022-08-19T20:19:37.969Z,65.76
2022-08-19T20:22:13.397Z,65.85
2022-08-19T20:24:46.375Z,66.28
2022-08-19T20:27:21.028Z,66.26
2022-08-19T20:30:04.574Z,66.14
2022-08-19T20:32:38.925Z,66.38
2022-08-19T20:35:13.298Z,66.57
2022-08-19T20:37:46.377Z,66.91
2022-08-19T20:40:21.852Z,67.60
2022-08-19T20:42:55.228Z,67.33
2022-08-19T20:45:33.448Z,67.34
2022-08-19T20:48:12.803Z,68.29
2022-08-19T20:50:46.254Z,68.21
2022-08-19T20:53:23.659Z,68.20
2022-08-19T20:56:00.092Z,68.31
2022-08-19T20:58:32.924Z,68.64
2022-08-19T21:01:07.598Z,68.64
2022-08-19T21:03:44.023Z,68.68
2022-08-19T21:06:17.451Z,68.82
2022-08-19T21:08:54.453Z,69.67
2022-08-19T21:11:27.551Z,69.44
2022-08-19T21:14:01.177Z,69.28
2022-08-19T21:16:34.704Z,69.92
2022-08-19T21:19:08.084Z,69.91
2022-08-19T21:21:41.241Z,69.83
2022-08-19T21:24:16.106Z,69.78
2022-08-19T21:26:51.532Z,69.98
2022-08-19T21:29:25.120Z,69.92
2022-08-19T21:31:58.804Z,70.02
2022-08-19T21:34:32.332Z,70.10
2022-08-19T21:37:06.132Z,70.27
2022-08-19T21:39:46.892Z,70.32
2022-08-19T21:42:23.047Z,70.42
2022-08-19T21:44:56.556Z,70.48
2022-08-19T21:47:29.331Z,71.03
2022-08-19T21:50:02.142Z,71.13
2022-08-19T21:52:35.364Z,71.26
2022-08-19T21:55:10.737Z,71.12
2022-08-19T21:57:43.620Z,71.96
2022-08-19T22:00:27.292Z,71.64
2022-08-19T22:03:08.165Z,72.22
2022-08-19T22:05:41.561Z,72.06
2022-08-19T22:08:15.972Z,71.89
2022-08-19T22:10:50.069Z,71.88
2022-08-19T22:13:23.525Z,71.87
2022-08-19T22:15:57.166Z,71.94
2022-08-19T22:18:30.956Z,72.02
2022-08-19T22:21:11.709Z,72.06
2022-08-19T22:23:48.048Z,72.13
2022-08-19T22:26:21.778Z,72.17
2022-08-19T22:28:56.025Z,72.33
2022-08-19T22:31:30.591Z,72.48
2022-08-19T22:34:05.505Z,72.51
2022-08-19T22:36:39.279Z,72.59
2022-08-19T22:39:13.187Z,72.52
2022-08-19T22:41:47.106Z,72.67
2022-08-19T22:44:21.023Z,72.65
2022-08-19T22:46:54.634Z,72.66
2022-08-19T22:49:28.332Z,72.77
2022-08-19T22:52:18.601Z,72.82
2022-08-19T22:54:57.680Z,72.89
2022-08-19T22:57:31.210Z,72.92
2022-08-19T23:00:08.358Z,72.96
2022-08-19T23:02:52.293Z,73.04
2022-08-19T23:05:30.169Z,73.26
2022-08-19T23:08:04.233Z,73.25
2022-08-19T23:10:38.002Z,73.45
2022-08-19T23:13:11.484Z,73.44
2022-08-19T23:15:46.387Z,73.43
2022-08-19T23:18:20.799Z,73.63
2022-08-19T23:20:56.701Z,73.72
2022-08-19T23:23:30.380Z,73.68
2022-08-19T23:26:03.079Z,73.64
2022-08-19T23:28:55.328Z,73.70
2022-08-19T23:31:30.438Z,73.94
2022-08-19T23:34:04.202Z,74.06
2022-08-19T23:36:37.937Z,74.05
2022-08-19T23:39:11.182Z,74.16
2022-08-19T23:41:44.680Z,74.29
2022-08-19T23:44:18.457Z,74.33
2022-08-19T23:46:54.926Z,74.24
2022-08-19T23:49:29.397Z,74.31
2022-08-19T23:52:03.216Z,74.43
2022-08-19T23:54:43.692Z,74.59
2022-08-19T23:57:21.706Z,74.57
2022-08-19T23:59:54.938Z,74.50
